createdAt,value
2022-09-04T00:00:08.048Z,97.56
2022-09-04T00:02:52.878Z,97.02
2022-09-04T00:05:26.749Z,96.60
2022-09-04T00:07:59.262Z,96.09
2022-09-04T00:10:32.219Z,95.67
2022-09-04T00:13:07.239Z,95.97
2022-09-04T00:15:44.942Z,95.42
2022-09-04T00:18:18.285Z,96.15
2022-09-04T00:20:51.835Z,95.77
2022-09-04T00:23:22.143Z,95.67
2022-09-04T00:25:58.631Z,96.63
2022-09-04T00:28:35.620Z,97.89
2022-09-04T00:31:16.117Z,98.62
2022-09-04T00:33:52.785Z,98.82
2022-09-04T00:36:23.520Z,100.00
2022-09-04T00:38:56.986Z,100.00
2022-09-04T00:41:28.157Z,100.00
2022-09-04T00:44:38.516Z,99.69
2022-09-04T00:47:30.684Z,99.46
2022-09-04T00:50:23.803Z,99.28
2022-09-04T00:53:18.707Z,98.89
2022-09-04T00:56:00.171Z,98.60
2022-09-04T00:58:38.365Z,98.41
2022-09-04T01:01:06.791Z,99.30
2022-09-04T01:03:59.402Z,99.51
2022-09-04T01:06:41.793Z,100.00
2022-09-04T01:09:33.530Z,99.41
2022-09-04T01:12:11.093Z,98.86
2022-09-04T01:14:44.310Z,97.73
2022-09-04T01:17:27.754Z,96.67
2022-09-04T01:20:08.591Z,96.19
2022-09-04T01:23:06.854Z,96.00
2022-09-04T01:25:56.151Z,96.18
2022-09-04T01:28:30.818Z,95.91
2022-09-04T01:31:05.481Z,96.58
2022-09-04T01:33:54.868Z,96.33
2022-09-04T01:36:42.895Z,95.96
2022-09-04T01:39:11.327Z,94.97
2022-09-04T01:41:46.389Z,94.44
2022-09-04T01:44:14.672Z,95.16
2022-09-04T01:47:04.440Z,95.50
2022-09-04T01:49:37.961Z,95.57
2022-09-04T01:52:17.486Z,95.61
2022-09-04T01:54:54.318Z,95.28
2022-09-04T01:57:36.845Z,95.54
2022-09-04T02:00:09.667Z,94.91
2022-09-04T02:02:55.965Z,95.12
2022-09-04T02:05:32.715Z,95.31
2022-09-04T02:08:12.165Z,95.70
2022-09-04T02:10:47.331Z,96.21
2022-09-04T02:13:23.267Z,96.33
2022-09-04T02:16:02.744Z,95.93
2022-09-04T02:18:43.621Z,95.76
2022-09-04T02:21:19.571Z,95.38
2022-09-04T02:23:54.160Z,95.72
2022-09-04T02:26:28.214Z,95.84
2022-09-04T02:29:03.902Z,95.97
2022-09-04T02:31:38.797Z,95.65
2022-09-04T02:34:11.004Z,95.46
2022-09-04T02:36:50.109Z,96.34
2022-09-04T02:39:33.683Z,95.96
2022-09-04T02:42:10.780Z,96.48
2022-09-04T02:44:52.545Z,96.69
2022-09-04T02:47:29.133Z,96.68
2022-09-04T02:50:06.784Z,96.66
2022-09-04T02:52:56.805Z,96.67
2022-09-04T02:55:44.759Z,96.49
2022-09-04T02:58:22.640Z,96.34
2022-09-04T03:01:01.727Z,96.98
2022-09-04T03:03:35.949Z,96.67
2022-09-04T03:06:09.878Z,97.09
2022-09-04T03:08:46.155Z,96.45
2022-09-04T03:11:19.200Z,96.36
2022-09-04T03:13:52.061Z,95.39
2022-09-04T03:16:28.102Z,93.52
2022-09-04T03:19:16.569Z,92.03
2022-09-04T03:22:03.966Z,90.72
2022-09-04T03:24:37.139Z,88.66
2022-09-04T03:27:08.311Z,88.47
2022-09-04T03:29:43.755Z,88.31
2022-09-04T03:32:19.163Z,88.09
2022-09-04T03:34:52.461Z,88.01
2022-09-04T03:37:31.718Z,87.42
2022-09-04T03:40:26.041Z,86.61
2022-09-04T03:43:08.569Z,86.35
2022-09-04T03:45:44.567Z,86.09
2022-09-04T03:48:28.687Z,85.76
2022-09-04T03:51:01.195Z,86.37
2022-09-04T03:53:39.359Z,88.03
2022-09-04T03:56:30.910Z,88.49
2022-09-04T03:59:04.874Z,87.71
2022-09-04T04:01:43.199Z,86.95
2022-09-04T04:04:38.093Z,86.63
2022-09-04T04:07:12.646Z,85.61
2022-09-04T04:09:55.736Z,85.65
2022-09-04T04:12:39.238Z,85.55
2022-09-04T04:15:17.629Z,87.73
2022-09-04T04:18:01.244Z,88.67
2022-09-04T04:20:41.219Z,88.21
2022-09-04T04:23:30.592Z,87.87
2022-09-04T04:26:10.553Z,87.56
2022-09-04T04:29:11.486Z,88.44
2022-09-04T04:32:10.039Z,88.07
2022-09-04T04:34:48.083Z,88.05
2022-09-04T04:37:26.420Z,86.90
2022-09-04T04:40:03.683Z,86.23
2022-09-04T04:42:41.985Z,85.49
2022-09-04T04:45:38.177Z,85.39
2022-09-04T04:48:37.797Z,84.47
2022-09-04T04:51:20.823Z,83.44
2022-09-04T04:53:59.529Z,83.13
2022-09-04T04:56:36.848Z,82.11
2022-09-04T04:59:20.762Z,81.80
2022-09-04T05:02:00.675Z,82.13
2022-09-04T05:04:40.621Z,82.33
2022-09-04T05:07:17.816Z,81.75
2022-09-04T05:09:59.204Z,81.19
2022-09-04T05:12:49.570Z,82.36
2022-09-04T05:15:24.292Z,83.54
2022-09-04T05:17:56.095Z,83.37
2022-09-04T05:20:40.044Z,82.85
2022-09-04T05:23:28.730Z,82.22
2022-09-04T05:26:08.204Z,82.59
2022-09-04T05:28:47.262Z,81.94
2022-09-04T05:31:24.008Z,81.50
2022-09-04T05:34:01.455Z,82.11
2022-09-04T05:36:42.784Z,86.56
2022-09-04T05:39:21.131Z,88.42
2022-09-04T05:42:06.843Z,89.11
2022-09-04T05:44:52.783Z,90.10
2022-09-04T05:47:32.624Z,90.24
2022-09-04T05:50:32.475Z,88.62
2022-09-04T05:53:22.165Z,87.25
2022-09-04T05:56:19.871Z,85.97
2022-09-04T05:59:09.687Z,88.02
2022-09-04T06:02:04.614Z,87.06
2022-09-04T06:05:08.358Z,87.12
2022-09-04T06:07:41.835Z,86.86
2022-09-04T06:10:18.227Z,88.22
2022-09-04T06:13:11.188Z,89.32
2022-09-04T06:15:51.743Z,88.62
2022-09-04T06:18:43.334Z,87.25
2022-09-04T06:21:40.092Z,85.46
2022-09-04T06:24:26.679Z,83.65
2022-09-04T06:27:14.219Z,82.29
2022-09-04T06:29:57.079Z,81.36
2022-09-04T06:32:56.115Z,80.28
2022-09-04T06:35:36.414Z,80.29
2022-09-04T06:38:18.837Z,80.93
2022-09-04T06:40:59.476Z,80.16
2022-09-04T06:43:38.011Z,78.46
2022-09-04T06:46:17.820Z,81.40
2022-09-04T06:48:57.446Z,81.05
2022-09-04T06:51:45.168Z,79.61
2022-09-04T06:54:19.009Z,78.49
2022-09-04T06:57:05.801Z,76.73
2022-09-04T06:59:56.617Z,75.59
2022-09-04T07:02:41.747Z,77.76
2022-09-04T07:05:22.699Z,79.99
2022-09-04T07:08:01.096Z,79.51
2022-09-04T07:10:34.274Z,78.92
2022-09-04T07:13:38.831Z,87.83
2022-09-04T07:16:21.956Z,92.84
2022-09-04T07:19:13.895Z,94.03
2022-09-04T07:21:52.315Z,89.28
2022-09-04T07:24:46.200Z,84.87
2022-09-04T07:27:22.209Z,85.19
2022-09-04T07:29:55.601Z,86.56
2022-09-04T07:32:30.706Z,87.62
2022-09-04T07:35:07.848Z,89.59
2022-09-04T07:37:44.471Z,86.61
2022-09-04T07:40:17.687Z,87.71
2022-09-04T07:42:53.297Z,85.39
2022-09-04T07:45:30.999Z,86.98
2022-09-04T07:48:12.687Z,83.27
2022-09-04T07:51:03.577Z,82.79
2022-09-04T07:53:53.707Z,87.89
2022-09-04T07:56:32.306Z,88.89
2022-09-04T07:59:21.263Z,90.39
2022-09-04T08:02:09.044Z,92.72
2022-09-04T08:05:03.319Z,92.82
2022-09-04T08:08:17.900Z,93.90
2022-09-04T08:11:03.565Z,88.78
2022-09-04T08:14:00.472Z,84.39
2022-09-04T08:16:36.169Z,78.92
2022-09-04T08:19:19.674Z,78.63
2022-09-04T08:21:53.173Z,74.99
2022-09-04T08:24:53.358Z,72.97
2022-09-04T08:27:44.237Z,71.11
2022-09-04T08:30:15.781Z,70.09
2022-09-04T08:33:24.623Z,68.82
2022-09-04T08:36:01.739Z,68.42
2022-09-04T08:38:56.512Z,67.32
2022-09-04T08:42:20.922Z,66.08
2022-09-04T08:45:22.291Z,65.36
2022-09-04T08:48:32.560Z,73.27
2022-09-04T08:51:34.579Z,71.86
2022-09-04T08:54:37.133Z,71.01
2022-09-04T08:57:35.187Z,72.52
2022-09-04T09:00:09.868Z,73.35
2022-09-04T09:03:15.138Z,70.71
2022-09-04T09:06:17.611Z,68.80
2022-09-04T09:09:31.699Z,70.94
2022-09-04T09:12:28.260Z,70.50
2022-09-04T09:15:26.486Z,76.40
2022-09-04T09:18:03.934Z,75.93
2022-09-04T09:20:48.719Z,73.23
2022-09-04T09:23:19.826Z,67.77
2022-09-04T09:25:57.797Z,64.86
2022-09-04T09:29:03.741Z,59.16
2022-09-04T09:32:31.041Z,60.01
2022-09-04T09:35:37.135Z,63.81
2022-09-04T09:38:32.205Z,64.00
2022-09-04T09:41:43.524Z,71.49
2022-09-04T09:44:37.394Z,65.65
2022-09-04T09:47:23.269Z,63.53
2022-09-04T09:50:13.742Z,67.17
2022-09-04T09:53:23.738Z,67.43
2022-09-04T09:56:19.697Z,75.44
2022-09-04T09:59:26.132Z,78.09
2022-09-04T10:02:34.973Z,78.23
2022-09-04T10:05:44.906Z,77.24
2022-09-04T10:08:58.451Z,68.26
2022-09-04T10:12:04.152Z,62.08
2022-09-04T10:14:57.058Z,53.62
2022-09-04T10:17:55.883Z,49.43
2022-09-04T10:20:43.675Z,51.42
2022-09-04T10:24:07.271Z,50.01
2022-09-04T10:27:28.595Z,45.69
2022-09-04T10:30:08.509Z,41.49
2022-09-04T10:33:11.706Z,48.03
2022-09-04T10:36:01.273Z,43.30
2022-09-04T10:39:17.401Z,41.83
2022-09-04T10:42:10.469Z,45.05
2022-09-04T10:45:05.129Z,48.11
2022-09-04T10:47:59.102Z,43.30
2022-09-04T10:50:38.115Z,47.58
2022-09-04T10:53:28.578Z,43.54
2022-09-04T10:56:10.098Z,41.18
2022-09-04T10:58:58.450Z,52.17
2022-09-04T11:02:08.166Z,52.50
2022-09-04T11:05:07.830Z,42.72
2022-09-04T11:08:13.030Z,38.29
2022-09-04T11:11:05.850Z,38.33
2022-09-04T11:14:06.715Z,33.03
2022-09-04T11:17:11.119Z,32.40
2022-09-04T11:20:18.104Z,38.83
2022-09-04T11:23:34.538Z,36.23
2022-09-04T11:26:39.356Z,43.95
2022-09-04T11:29:25.884Z,45.30
2022-09-04T11:32:15.922Z,34.87
2022-09-04T11:35:14.047Z,38.64
2022-09-04T11:38:10.251Z,30.85
2022-09-04T11:41:28.469Z,27.94
2022-09-04T11:44:36.799Z,31.07
2022-09-04T11:47:25.541Z,30.73
2022-09-04T11:50:24.361Z,30.71
2022-09-04T11:53:43.464Z,32.29
2022-09-04T11:56:39.212Z,32.59
2022-09-04T11:59:27.918Z,26.88
2022-09-04T12:02:30.836Z,26.59
2022-09-04T12:05:16.864Z,35.59
2022-09-04T12:08:04.809Z,32.45
2022-09-04T12:10:52.535Z,27.16
2022-09-04T12:13:45.210Z,34.95
2022-09-04T12:16:33.815Z,33.20
2022-09-04T12:19:31.127Z,26.48
2022-09-04T12:22:20.567Z,28.26
2022-09-04T12:25:08.132Z,29.53
2022-09-04T12:28:02.704Z,35.45
2022-09-04T12:30:48.554Z,30.35
2022-09-04T12:33:38.669Z,27.10
2022-09-04T12:36:33.289Z,25.61
2022-09-04T12:39:49.294Z,24.17
2022-09-04T12:42:22.259Z,28.49
2022-09-04T12:45:03.532Z,31.22
2022-09-04T12:47:43.785Z,26.43
2022-09-04T12:50:29.851Z,23.04
2022-09-04T12:53:19.292Z,19.26
2022-09-04T12:56:00.940Z,18.50
2022-09-04T12:58:42.919Z,19.83
2022-09-04T13:01:17.339Z,23.17
2022-09-04T13:03:58.934Z,21.03
2022-09-04T13:06:38.969Z,19.83
2022-09-04T13:09:18.945Z,20.99
2022-09-04T13:11:57.784Z,21.75
2022-09-04T13:14:44.121Z,20.65
2022-09-04T13:17:21.700Z,24.73
2022-09-04T13:19:55.909Z,23.02
2022-09-04T13:22:39.518Z,27.81
2022-09-04T13:25:16.144Z,30.69
2022-09-04T13:28:04.718Z,25.90
2022-09-04T13:30:36.171Z,32.16
2022-09-04T13:33:18.535Z,29.04
2022-09-04T13:35:59.619Z,27.15
2022-09-04T13:39:02.132Z,24.11
2022-09-04T13:42:10.920Z,25.46
2022-09-04T13:45:05.966Z,21.55
2022-09-04T13:47:45.514Z,18.62
2022-09-04T13:50:25.516Z,24.07
2022-09-04T13:52:59.697Z,26.83
2022-09-04T13:55:36.490Z,25.30
2022-09-04T13:58:11.525Z,22.87
2022-09-04T14:00:47.015Z,21.30
2022-09-04T14:03:27.041Z,21.13
2022-09-04T14:05:55.413Z,24.50
2022-09-04T14:08:25.576Z,23.93
2022-09-04T14:11:24.337Z,21.35
2022-09-04T14:14:21.260Z,21.78
2022-09-04T14:16:49.688Z,29.93
2022-09-04T14:19:36.415Z,34.77
2022-09-04T14:22:17.630Z,28.92
2022-09-04T14:24:56.416Z,27.53
2022-09-04T14:27:33.353Z,25.36
2022-09-04T14:30:08.532Z,21.27
2022-09-04T14:32:58.024Z,20.09
2022-09-04T14:35:36.019Z,23.44
2022-09-04T14:38:36.362Z,21.52
2022-09-04T14:41:20.583Z,24.57
2022-09-04T14:44:07.001Z,22.98
2022-09-04T14:46:41.409Z,23.24
2022-09-04T14:49:15.514Z,21.56
2022-09-04T14:51:48.802Z,28.53
2022-09-04T14:54:26.300Z,29.60
2022-09-04T14:56:58.084Z,28.76
2022-09-04T14:59:33.051Z,29.76
2022-09-04T15:02:18.479Z,27.32
2022-09-04T15:04:51.629Z,25.56
2022-09-04T15:07:32.864Z,26.55
2022-09-04T15:10:11.122Z,25.21
2022-09-04T15:12:44.107Z,22.85
2022-09-04T15:15:20.794Z,24.59
2022-09-04T15:17:54.101Z,26.19
2022-09-04T15:20:25.383Z,30.33
2022-09-04T15:22:59.780Z,28.18
2022-09-04T15:25:59.116Z,24.82
2022-09-04T15:28:38.691Z,23.06
2022-09-04T15:31:16.823Z,20.57
2022-09-04T15:33:49.053Z,19.44
2022-09-04T15:36:24.894Z,19.98
2022-09-04T15:38:56.954Z,19.80
2022-09-04T15:41:37.248Z,20.89
2022-09-04T15:44:16.623Z,20.33
2022-09-04T15:46:58.918Z,19.46
2022-09-04T15:49:40.811Z,19.93
2022-09-04T15:52:24.576Z,20.04
2022-09-04T15:55:10.643Z,20.34
2022-09-04T15:57:59.813Z,20.36
2022-09-04T16:00:32.463Z,22.11
2022-09-04T16:03:12.174Z,21.76
2022-09-04T16:05:45.619Z,23.39
2022-09-04T16:08:23.549Z,24.15
2022-09-04T16:11:00.152Z,23.48
2022-09-04T16:13:46.545Z,22.98
2022-09-04T16:16:20.457Z,22.76
2022-09-04T16:19:02.662Z,23.51
2022-09-04T16:21:43.199Z,23.98
2022-09-04T16:24:16.488Z,22.83
2022-09-04T16:26:49.281Z,22.70
2022-09-04T16:29:36.011Z,22.30
2022-09-04T16:32:07.102Z,23.64
2022-09-04T16:34:46.987Z,24.01
2022-09-04T16:37:20.445Z,24.77
2022-09-04T16:40:00.678Z,25.39
2022-09-04T16:42:38.235Z,25.98
2022-09-04T16:45:15.453Z,26.00
2022-09-04T16:47:51.775Z,26.20
2022-09-04T16:50:28.864Z,25.33
2022-09-04T16:53:13.442Z,27.43
2022-09-04T16:55:59.186Z,27.40
2022-09-04T16:58:43.279Z,27.65
2022-09-04T17:01:18.956Z,28.29
2022-09-04T17:04:13.565Z,26.90
2022-09-04T17:07:00.299Z,25.98
2022-09-04T17:09:35.504Z,26.29
2022-09-04T17:12:18.196Z,27.54
2022-09-04T17:14:54.337Z,28.64
2022-09-04T17:17:31.393Z,28.58
2022-09-04T17:20:10.324Z,28.95
2022-09-04T17:29:01.037Z,29.81
2022-09-04T17:29:10.112Z,31.49
2022-09-04T17:29:19.234Z,32.50
2022-09-04T17:31:45.627Z,33.30
2022-09-04T17:40:25.126Z,33.48
2022-09-04T17:40:44.001Z,35.54
2022-09-04T17:40:48.439Z,34.21
2022-09-04T17:43:22.209Z,37.61
2022-09-04T17:46:02.651Z,39.54
2022-09-04T17:48:33.865Z,40.38
2022-09-04T17:51:05.279Z,41.10
2022-09-04T17:53:38.932Z,41.50
2022-09-04T17:56:15.832Z,42.42
2022-09-04T17:58:50.350Z,42.89
2022-09-04T18:01:23.422Z,43.21
2022-09-04T18:04:22.030Z,43.80
2022-09-04T18:06:59.010Z,44.64
2022-09-04T18:09:37.518Z,45.22
2022-09-04T18:12:18.155Z,45.91
2022-09-04T18:15:25.249Z,46.71
2022-09-04T18:17:54.660Z,47.75
2022-09-04T18:20:29.471Z,48.79
2022-09-04T18:23:16.480Z,49.87
2022-09-04T18:25:50.784Z,52.05
2022-09-04T18:28:27.236Z,53.24
2022-09-04T18:37:06.173Z,54.92
2022-09-04T18:37:17.224Z,57.17
2022-09-04T18:37:23.607Z,56.57
2022-09-04T18:39:51.574Z,57.79
2022-09-04T18:47:58.113Z,57.57
2022-09-04T18:50:29.883Z,58.11
2022-09-04T18:50:40.369Z,58.10
2022-09-04T18:51:21.857Z,57.26
2022-09-04T18:53:54.081Z,57.50
2022-09-04T18:56:26.868Z,58.03
2022-09-04T18:59:01.314Z,58.02
2022-09-04T19:01:41.064Z,57.14
2022-09-04T19:04:32.828Z,59.11
2022-09-04T19:07:07.603Z,59.44
2022-09-04T19:09:58.875Z,58.75
2022-09-04T19:12:46.620Z,58.03
2022-09-04T19:15:37.089Z,59.12
2022-09-04T19:18:17.401Z,59.62
2022-09-04T19:20:50.002Z,60.03
2022-09-04T19:23:27.792Z,59.57
2022-09-04T19:26:01.362Z,58.83
2022-09-04T19:28:53.137Z,59.72
2022-09-04T19:31:31.355Z,60.11
2022-09-04T19:34:06.534Z,61.13
2022-09-04T19:36:40.459Z,62.10
2022-09-04T19:45:56.851Z,62.33
2022-09-04T19:46:18.372Z,63.08
2022-09-04T19:46:19.900Z,62.50
2022-09-04T19:48:22.094Z,63.40
2022-09-04T19:53:19.777Z,63.84
2022-09-04T19:53:57.532Z,63.63
2022-09-04T19:56:31.892Z,64.21
2022-09-04T19:59:15.575Z,64.14
2022-09-04T20:01:48.579Z,64.72
2022-09-04T20:04:33.330Z,65.39
2022-09-04T20:07:10.725Z,66.00
2022-09-04T20:09:44.518Z,66.56
2022-09-04T20:12:19.070Z,66.99
2022-09-04T20:14:55.274Z,66.40
2022-09-04T20:17:39.664Z,67.31
2022-09-04T20:20:19.593Z,67.89
2022-09-04T20:23:00.328Z,68.51
2022-09-04T20:25:49.145Z,68.61
2022-09-04T20:28:25.142Z,67.88
2022-09-04T20:31:35.298Z,68.03
2022-09-04T20:34:09.520Z,68.23
2022-09-04T20:36:49.016Z,69.05
2022-09-04T20:39:27.748Z,69.22
2022-09-04T20:41:59.585Z,68.99
2022-09-04T20:44:55.194Z,68.96
2022-09-04T20:52:50.799Z,69.00
2022-09-04T20:52:51.291Z,70.02
2022-09-04T20:53:25.100Z,70.43
2022-09-04T20:56:20.646Z,70.61
2022-09-04T21:03:06.534Z,70.79
2022-09-04T21:03:17.386Z,70.58
2022-09-04T21:05:28.899Z,70.71
2022-09-04T21:08:08.354Z,71.67
2022-09-04T21:10:42.552Z,72.02
2022-09-04T21:13:20.065Z,72.23
2022-09-04T21:15:59.223Z,72.18
2022-09-04T21:19:11.354Z,72.48
2022-09-04T21:21:50.825Z,72.62
2022-09-04T21:24:44.901Z,73.47
2022-09-04T21:27:45.845Z,73.98
2022-09-04T21:30:19.129Z,74.20
2022-09-04T21:33:04.127Z,74.87
2022-09-04T21:35:55.694Z,74.84
2022-09-04T21:39:00.208Z,74.99
2022-09-04T21:41:49.476Z,75.50
2022-09-04T21:44:37.131Z,75.12
2022-09-04T21:47:31.355Z,75.20
2022-09-04T21:50:39.250Z,74.83
2022-09-04T21:53:41.935Z,74.98
2022-09-04T21:59:36.719Z,75.04
2022-09-04T22:02:39.554Z,75.31
2022-09-04T22:02:54.425Z,75.52
2022-09-04T22:05:33.761Z,75.93
2022-09-04T22:12:05.038Z,76.12
2022-09-04T22:13:30.626Z,76.19
2022-09-04T22:14:16.667Z,76.60
2022-09-04T22:17:04.810Z,76.47
2022-09-04T22:20:15.021Z,76.70
2022-09-04T22:23:20.527Z,77.01
2022-09-04T22:26:23.611Z,77.03
2022-09-04T22:29:18.506Z,76.96
2022-09-04T22:32:33.819Z,77.24
2022-09-04T22:35:43.520Z,77.64
2022-09-04T22:38:32.936Z,77.53
2022-09-04T22:41:22.575Z,77.35
2022-09-04T22:44:06.377Z,77.35
2022-09-04T22:46:45.241Z,77.22
2022-09-04T22:49:47.435Z,76.82
2022-09-04T22:52:35.475Z,77.08
2022-09-04T22:55:39.542Z,77.44
2022-09-04T22:58:29.929Z,77.92
2022-09-04T23:01:15.199Z,78.04
2022-09-04T23:04:04.973Z,78.07
2022-09-04T23:11:59.913Z,78.83
2022-09-04T23:13:58.661Z,78.46
2022-09-04T23:13:59.148Z,78.94
2022-09-04T23:16:32.589Z,79.33
2022-09-04T23:23:38.449Z,79.47
2022-09-04T23:26:36.243Z,79.00
2022-09-04T23:26:52.826Z,79.68
2022-09-04T23:28:27.720Z,79.83
2022-09-04T23:31:08.820Z,79.89
2022-09-04T23:34:07.336Z,81.16
2022-09-04T23:37:13.842Z,80.78
2022-09-04T23:40:04.775Z,81.90
2022-09-04T23:42:56.562Z,85.89
2022-09-04T23:45:52.854Z,90.02
2022-09-04T23:48:54.249Z,92.95
2022-09-04T23:51:30.682Z,94.65
2022-09-04T23:54:33.514Z,95.26
2022-09-04T23:57:11.135Z,94.80
